sensor_id;sensor_type;location;lat;lon;timestamp;P1;durP1;ratioP1;P2;durP2;ratioP2
37895;SDS011;23733;53.254;10.430;2023-04-15T00:01:00;11.33;;;7.73;;
37895;SDS011;23733;53.254;10.430;2023-04-15T00:03:27;10.53;;;7.27;;
37895;SDS011;23733;53.254;10.430;2023-04-15T00:05:53;13.37;;;8.77;;
37895;SDS011;23733;53.254;10.430;2023-04-15T00:08:20;14.87;;;7.90;;
37895;SDS011;23733;53.254;10.430;2023-04-15T00:10:46;14.13;;;8.20;;
37895;SDS011;23733;53.254;10.430;2023-04-15T00:13:14;12.47;;;8.40;;
37895;SDS011;23733;53.254;10.430;2023-04-15T00:15:41;14.20;;;8.10;;
37895;SDS011;23733;53.254;10.430;2023-04-15T00:18:07;9.57;;;7.10;;
37895;SDS011;23733;53.254;10.430;2023-04-15T00:20:34;11.73;;;7.77;;
37895;SDS011;23733;53.254;10.430;2023-04-15T00:23:01;10.13;;;6.77;;
37895;SDS011;23733;53.254;10.430;2023-04-15T00:25:28;14.37;;;6.20;;
37895;SDS011;23733;53.254;10.430;2023-04-15T00:27:54;9.10;;;6.30;;
37895;SDS011;23733;53.254;10.430;2023-04-15T00:30:21;8.13;;;5.50;;
37895;SDS011;23733;53.254;10.430;2023-04-15T00:32:50;10.37;;;6.63;;
37895;SDS011;23733;53.254;10.430;2023-04-15T00:35:16;9.13;;;5.73;;
37895;SDS011;23733;53.254;10.430;2023-04-15T00:37:42;9.60;;;6.13;;
37895;SDS011;23733;53.254;10.430;2023-04-15T00:40:10;8.37;;;6.00;;
37895;SDS011;23733;53.254;10.430;2023-04-15T00:42:38;10.57;;;6.70;;
37895;SDS011;23733;53.254;10.430;2023-04-15T00:45:04;9.47;;;6.00;;
37895;SDS011;23733;53.254;10.430;2023-04-15T00:47:31;9.87;;;6.17;;
37895;SDS011;23733;53.254;10.430;2023-04-15T00:49:58;8.57;;;5.90;;
37895;SDS011;23733;53.254;10.430;2023-04-15T00:52:24;9.63;;;5.07;;
37895;SDS011;23733;53.254;10.430;2023-04-15T00:54:50;6.37;;;4.77;;
37895;SDS011;23733;53.254;10.430;2023-04-15T00:57:18;7.40;;;5.37;;
37895;SDS011;23733;53.254;10.430;2023-04-15T00:59:46;9.27;;;5.80;;
37895;SDS011;23733;53.254;10.430;2023-04-15T01:02:12;8.63;;;5.87;;
37895;SDS011;23733;53.254;10.430;2023-04-15T01:04:38;7.73;;;5.07;;
37895;SDS011;23733;53.254;10.430;2023-04-15T01:07:04;8.33;;;5.50;;
37895;SDS011;23733;53.254;10.430;2023-04-15T01:12:53;7.07;;;4.90;;
37895;SDS011;23733;53.254;10.430;2023-04-15T01:15:19;7.20;;;5.13;;
37895;SDS011;23733;53.254;10.430;2023-04-15T01:17:45;7.23;;;4.90;;
37895;SDS011;23733;53.254;10.430;2023-04-15T01:20:12;7.00;;;4.93;;
37895;SDS011;23733;53.254;10.430;2023-04-15T01:22:44;7.77;;;5.43;;
37895;SDS011;23733;53.254;10.430;2023-04-15T01:25:11;6.63;;;5.07;;
37895;SDS011;23733;53.254;10.430;2023-04-15T01:27:42;8.07;;;5.00;;
37895;SDS011;23733;53.254;10.430;2023-04-15T01:30:08;7.77;;;5.30;;
37895;SDS011;23733;53.254;10.430;2023-04-15T01:32:35;6.23;;;4.93;;
37895;SDS011;23733;53.254;10.430;2023-04-15T01:35:04;7.37;;;5.17;;
37895;SDS011;23733;53.254;10.430;2023-04-15T01:37:30;6.37;;;4.57;;
37895;SDS011;23733;53.254;10.430;2023-04-15T01:39:57;7.73;;;5.03;;
37895;SDS011;23733;53.254;10.430;2023-04-15T01:42:23;6.87;;;5.20;;
37895;SDS011;23733;53.254;10.430;2023-04-15T01:44:49;6.60;;;5.07;;
37895;SDS011;23733;53.254;10.430;2023-04-15T01:47:16;9.57;;;5.70;;
37895;SDS011;23733;53.254;10.430;2023-04-15T01:49:45;6.67;;;5.03;;
37895;SDS011;23733;53.254;10.430;2023-04-15T01:52:12;6.97;;;5.33;;
37895;SDS011;23733;53.254;10.430;2023-04-15T01:54:40;7.07;;;5.10;;
37895;SDS011;23733;53.254;10.430;2023-04-15T01:57:07;9.10;;;6.10;;
37895;SDS011;23733;53.254;10.430;2023-04-15T01:59:34;8.30;;;5.77;;
37895;SDS011;23733;53.254;10.430;2023-04-15T02:02:00;6.67;;;5.00;;
37895;SDS011;23733;53.254;10.430;2023-04-15T02:04:30;8.10;;;5.57;;
37895;SDS011;23733;53.254;10.430;2023-04-15T02:06:56;7.63;;;5.60;;
37895;SDS011;23733;53.254;10.430;2023-04-15T02:09:26;7.73;;;4.80;;
37895;SDS011;23733;53.254;10.430;2023-04-15T02:11:52;8.03;;;5.93;;
37895;SDS011;23733;53.254;10.430;2023-04-15T02:14:21;8.07;;;5.97;;
37895;SDS011;23733;53.254;10.430;2023-04-15T02:16:56;7.87;;;5.87;;
37895;SDS011;23733;53.254;10.430;2023-04-15T02:19:31;8.17;;;5.43;;
37895;SDS011;23733;53.254;10.430;2023-04-15T02:22:01;7.73;;;6.03;;
37895;SDS011;23733;53.254;10.430;2023-04-15T02:24:30;7.10;;;5.10;;
37895;SDS011;23733;53.254;10.430;2023-04-15T02:26:56;8.50;;;6.30;;
37895;SDS011;23733;53.254;10.430;2023-04-15T02:29:22;9.20;;;6.40;;
37895;SDS011;23733;53.254;10.430;2023-04-15T02:31:48;8.07;;;5.90;;
37895;SDS011;23733;53.254;10.430;2023-04-15T02:34:15;8.17;;;5.93;;
37895;SDS011;23733;53.254;10.430;2023-04-15T02:36:41;10.13;;;6.47;;
37895;SDS011;23733;53.254;10.430;2023-04-15T02:39:07;6.87;;;5.13;;
37895;SDS011;23733;53.254;10.430;2023-04-15T02:41:38;8.97;;;6.40;;
37895;SDS011;23733;53.254;10.430;2023-04-15T02:44:25;8.90;;;6.50;;
37895;SDS011;23733;53.254;10.430;2023-04-15T02:46:52;8.93;;;6.23;;
37895;SDS011;23733;53.254;10.430;2023-04-15T02:49:22;8.70;;;6.30;;
37895;SDS011;23733;53.254;10.430;2023-04-15T02:51:48;9.50;;;6.57;;
37895;SDS011;23733;53.254;10.430;2023-04-15T02:54:21;13.10;;;8.00;;
37895;SDS011;23733;53.254;10.430;2023-04-15T02:56:47;11.17;;;7.57;;
37895;SDS011;23733;53.254;10.430;2023-04-15T02:59:15;12.07;;;7.70;;
37895;SDS011;23733;53.254;10.430;2023-04-15T03:01:41;12.90;;;7.80;;
37895;SDS011;23733;53.254;10.430;2023-04-15T03:06:52;11.87;;;8.10;;
37895;SDS011;23733;53.254;10.430;2023-04-15T03:09:18;13.50;;;8.03;;
37895;SDS011;23733;53.254;10.430;2023-04-15T03:11:51;13.00;;;8.60;;
37895;SDS011;23733;53.254;10.430;2023-04-15T03:14:24;11.17;;;7.97;;
37895;SDS011;23733;53.254;10.430;2023-04-15T03:16:53;15.83;;;9.30;;
37895;SDS011;23733;53.254;10.430;2023-04-15T03:19:20;14.43;;;8.90;;
37895;SDS011;23733;53.254;10.430;2023-04-15T03:21:46;12.77;;;8.37;;
37895;SDS011;23733;53.254;10.430;2023-04-15T03:24:12;17.80;;;10.00;;
37895;SDS011;23733;53.254;10.430;2023-04-15T03:26:38;14.13;;;8.97;;
37895;SDS011;23733;53.254;10.430;2023-04-15T03:29:05;13.53;;;8.63;;
37895;SDS011;23733;53.254;10.430;2023-04-15T03:31:31;13.83;;;8.77;;
37895;SDS011;23733;53.254;10.430;2023-04-15T03:33:57;13.47;;;9.23;;
37895;SDS011;23733;53.254;10.430;2023-04-15T03:36:23;16.70;;;10.53;;
37895;SDS011;23733;53.254;10.430;2023-04-15T03:38:49;17.70;;;10.10;;
37895;SDS011;23733;53.254;10.430;2023-04-15T03:41:18;17.07;;;10.37;;
37895;SDS011;23733;53.254;10.430;2023-04-15T03:43:45;18.07;;;10.93;;
37895;SDS011;23733;53.254;10.430;2023-04-15T03:46:11;16.63;;;10.40;;
37895;SDS011;23733;53.254;10.430;2023-04-15T03:48:43;17.00;;;10.27;;
37895;SDS011;23733;53.254;10.430;2023-04-15T03:51:12;19.13;;;10.13;;
37895;SDS011;23733;53.254;10.430;2023-04-15T03:53:38;18.57;;;9.93;;
37895;SDS011;23733;53.254;10.430;2023-04-15T03:56:04;29.27;;;13.00;;
37895;SDS011;23733;53.254;10.430;2023-04-15T03:58:48;16.47;;;10.13;;
37895;SDS011;23733;53.254;10.430;2023-04-15T04:01:14;21.40;;;11.17;;
37895;SDS011;23733;53.254;10.430;2023-04-15T04:03:41;21.97;;;11.83;;
37895;SDS011;23733;53.254;10.430;2023-04-15T04:06:09;19.33;;;10.50;;
37895;SDS011;23733;53.254;10.430;2023-04-15T04:09:10;23.90;;;12.43;;
37895;SDS011;23733;53.254;10.430;2023-04-15T04:11:32;21.60;;;11.30;;
37895;SDS011;23733;53.254;10.430;2023-04-15T04:14:07;21.30;;;11.83;;
37895;SDS011;23733;53.254;10.430;2023-04-15T04:16:33;18.97;;;10.97;;
37895;SDS011;23733;53.254;10.430;2023-04-15T04:18:59;28.87;;;14.00;;
37895;SDS011;23733;53.254;10.430;2023-04-15T04:21:29;21.63;;;12.47;;
37895;SDS011;23733;53.254;10.430;2023-04-15T04:23:55;23.93;;;12.43;;
37895;SDS011;23733;53.254;10.430;2023-04-15T04:26:23;26.47;;;13.53;;
37895;SDS011;23733;53.254;10.430;2023-04-15T04:28:52;25.33;;;12.47;;
37895;SDS011;23733;53.254;10.430;2023-04-15T04:31:18;22.07;;;11.97;;
37895;SDS011;23733;53.254;10.430;2023-04-15T04:33:47;22.37;;;12.37;;
37895;SDS011;23733;53.254;10.430;2023-04-15T04:36:14;28.67;;;13.40;;
37895;SDS011;23733;53.254;10.430;2023-04-15T04:38:48;22.43;;;12.67;;
37895;SDS011;23733;53.254;10.430;2023-04-15T04:41:15;24.20;;;12.60;;
37895;SDS011;23733;53.254;10.430;2023-04-15T04:43:47;25.17;;;12.67;;
37895;SDS011;23733;53.254;10.430;2023-04-15T04:46:23;22.77;;;11.73;;
37895;SDS011;23733;53.254;10.430;2023-04-15T04:48:58;22.33;;;12.77;;
37895;SDS011;23733;53.254;10.430;2023-04-15T04:51:39;27.30;;;12.83;;
37895;SDS011;23733;53.254;10.430;2023-04-15T04:54:06;26.70;;;13.27;;
37895;SDS011;23733;53.254;10.430;2023-04-15T04:56:52;30.07;;;14.30;;
37895;SDS011;23733;53.254;10.430;2023-04-15T04:59:28;24.80;;;12.83;;
37895;SDS011;23733;53.254;10.430;2023-04-15T05:08:10;32.53;;;15.00;;
37895;SDS011;23733;53.254;10.430;2023-04-15T05:11:05;29.83;;;14.40;;
37895;SDS011;23733;53.254;10.430;2023-04-15T05:13:48;34.93;;;16.20;;
37895;SDS011;23733;53.254;10.430;2023-04-15T05:16:18;35.97;;;16.10;;
37895;SDS011;23733;53.254;10.430;2023-04-15T05:18:44;27.77;;;14.63;;
37895;SDS011;23733;53.254;10.430;2023-04-15T05:21:23;35.33;;;16.93;;
37895;SDS011;23733;53.254;10.430;2023-04-15T05:24:20;31.87;;;15.43;;
37895;SDS011;23733;53.254;10.430;2023-04-15T05:26:52;29.20;;;15.27;;
37895;SDS011;23733;53.254;10.430;2023-04-15T05:29:24;36.17;;;15.77;;
37895;SDS011;23733;53.254;10.430;2023-04-15T05:31:50;32.30;;;16.10;;
37895;SDS011;23733;53.254;10.430;2023-04-15T05:34:28;34.97;;;16.50;;
37895;SDS011;23733;53.254;10.430;2023-04-15T05:40:03;29.20;;;14.97;;
37895;SDS011;23733;53.254;10.430;2023-04-15T05:42:32;34.07;;;15.97;;
37895;SDS011;23733;53.254;10.430;2023-04-15T05:45:28;40.20;;;17.33;;
37895;SDS011;23733;53.254;10.430;2023-04-15T05:48:03;47.87;;;17.83;;
37895;SDS011;23733;53.254;10.430;2023-04-15T05:50:35;28.47;;;14.40;;
37895;SDS011;23733;53.254;10.430;2023-04-15T05:53:04;31.83;;;14.87;;
37895;SDS011;23733;53.254;10.430;2023-04-15T05:55:31;32.10;;;15.97;;
37895;SDS011;23733;53.254;10.430;2023-04-15T05:58:00;39.20;;;16.90;;
37895;SDS011;23733;53.254;10.430;2023-04-15T06:00:41;38.20;;;17.73;;
37895;SDS011;23733;53.254;10.430;2023-04-15T06:03:22;39.27;;;17.17;;
37895;SDS011;23733;53.254;10.430;2023-04-15T06:05:48;45.13;;;19.10;;
37895;SDS011;23733;53.254;10.430;2023-04-15T06:08:40;44.57;;;19.97;;
37895;SDS011;23733;53.254;10.430;2023-04-15T06:11:07;40.27;;;18.47;;
37895;SDS011;23733;53.254;10.430;2023-04-15T06:13:33;43.73;;;19.83;;
37895;SDS011;23733;53.254;10.430;2023-04-15T06:16:08;49.40;;;21.17;;
37895;SDS011;23733;53.254;10.430;2023-04-15T06:18:35;53.53;;;23.03;;
37895;SDS011;23733;53.254;10.430;2023-04-15T06:21:01;42.90;;;21.03;;
37895;SDS011;23733;53.254;10.430;2023-04-15T06:23:34;41.83;;;20.50;;
37895;SDS011;23733;53.254;10.430;2023-04-15T06:26:01;51.60;;;22.70;;
37895;SDS011;23733;53.254;10.430;2023-04-15T06:28:39;51.53;;;23.23;;
37895;SDS011;23733;53.254;10.430;2023-04-15T06:31:05;45.53;;;21.77;;
37895;SDS011;23733;53.254;10.430;2023-04-15T06:33:47;59.33;;;26.13;;
37895;SDS011;23733;53.254;10.430;2023-04-15T06:36:13;49.17;;;23.50;;
37895;SDS011;23733;53.254;10.430;2023-04-15T06:38:46;54.90;;;25.33;;
37895;SDS011;23733;53.254;10.430;2023-04-15T06:41:12;48.30;;;24.47;;
37895;SDS011;23733;53.254;10.430;2023-04-15T06:43:38;48.03;;;24.47;;
37895;SDS011;23733;53.254;10.430;2023-04-15T06:46:05;50.43;;;24.80;;
37895;SDS011;23733;53.254;10.430;2023-04-15T06:48:31;49.33;;;24.90;;
37895;SDS011;23733;53.254;10.430;2023-04-15T06:50:57;49.77;;;25.33;;
37895;SDS011;23733;53.254;10.430;2023-04-15T06:53:24;44.90;;;24.50;;
37895;SDS011;23733;53.254;10.430;2023-04-15T06:55:52;50.03;;;25.83;;
37895;SDS011;23733;53.254;10.430;2023-04-15T06:58:18;50.97;;;25.97;;
37895;SDS011;23733;53.254;10.430;2023-04-15T07:00:44;47.87;;;24.13;;
37895;SDS011;23733;53.254;10.430;2023-04-15T07:03:11;49.63;;;25.17;;
37895;SDS011;23733;53.254;10.430;2023-04-15T07:05:38;50.43;;;25.00;;
37895;SDS011;23733;53.254;10.430;2023-04-15T07:08:04;56.93;;;28.73;;
37895;SDS011;23733;53.254;10.430;2023-04-15T07:10:31;51.53;;;25.20;;
37895;SDS011;23733;53.254;10.430;2023-04-15T07:12:58;51.30;;;25.70;;
37895;SDS011;23733;53.254;10.430;2023-04-15T07:15:25;56.47;;;27.80;;
37895;SDS011;23733;53.254;10.430;2023-04-15T07:17:51;56.20;;;27.20;;
37895;SDS011;23733;53.254;10.430;2023-04-15T07:20:17;58.47;;;28.20;;
37895;SDS011;23733;53.254;10.430;2023-04-15T07:22:44;71.53;;;31.17;;
37895;SDS011;23733;53.254;10.430;2023-04-15T07:25:10;57.07;;;27.67;;
37895;SDS011;23733;53.254;10.430;2023-04-15T07:27:37;54.27;;;26.83;;
37895;SDS011;23733;53.254;10.430;2023-04-15T07:30:03;59.73;;;28.40;;
37895;SDS011;23733;53.254;10.430;2023-04-15T07:32:29;59.57;;;27.43;;
37895;SDS011;23733;53.254;10.430;2023-04-15T07:34:56;61.83;;;28.10;;
37895;SDS011;23733;53.254;10.430;2023-04-15T07:37:22;57.10;;;27.87;;
37895;SDS011;23733;53.254;10.430;2023-04-15T07:39:48;57.33;;;26.10;;
37895;SDS011;23733;53.254;10.430;2023-04-15T07:42:15;64.47;;;29.37;;
37895;SDS011;23733;53.254;10.430;2023-04-15T07:44:43;65.53;;;29.47;;
37895;SDS011;23733;53.254;10.430;2023-04-15T07:47:15;62.30;;;29.07;;
37895;SDS011;23733;53.254;10.430;2023-04-15T07:56:15;66.43;;;29.50;;
37895;SDS011;23733;53.254;10.430;2023-04-15T07:58:47;61.33;;;27.13;;
37895;SDS011;23733;53.254;10.430;2023-04-15T08:01:17;57.77;;;27.17;;
37895;SDS011;23733;53.254;10.430;2023-04-15T08:03:46;66.97;;;29.23;;
37895;SDS011;23733;53.254;10.430;2023-04-15T08:06:13;58.17;;;28.50;;
37895;SDS011;23733;53.254;10.430;2023-04-15T08:08:49;63.63;;;28.47;;
37895;SDS011;23733;53.254;10.430;2023-04-15T08:11:20;62.90;;;28.50;;
37895;SDS011;23733;53.254;10.430;2023-04-15T08:13:47;56.10;;;26.57;;
37895;SDS011;23733;53.254;10.430;2023-04-15T08:18:47;53.67;;;25.53;;
37895;SDS011;23733;53.254;10.430;2023-04-15T08:21:24;58.80;;;28.10;;
37895;SDS011;23733;53.254;10.430;2023-04-15T08:24:00;59.70;;;28.33;;
37895;SDS011;23733;53.254;10.430;2023-04-15T08:26:43;57.30;;;27.57;;
37895;SDS011;23733;53.254;10.430;2023-04-15T08:29:14;63.53;;;29.00;;
37895;SDS011;23733;53.254;10.430;2023-04-15T08:31:49;60.13;;;27.43;;
37895;SDS011;23733;53.254;10.430;2023-04-15T08:35:00;64.80;;;29.00;;
37895;SDS011;23733;53.254;10.430;2023-04-15T08:37:32;53.90;;;25.80;;
37895;SDS011;23733;53.254;10.430;2023-04-15T08:40:02;62.17;;;28.73;;
37895;SDS011;23733;53.254;10.430;2023-04-15T08:42:32;58.37;;;27.57;;
37895;SDS011;23733;53.254;10.430;2023-04-15T08:45:08;60.73;;;28.87;;
37895;SDS011;23733;53.254;10.430;2023-04-15T08:47:57;50.80;;;24.77;;
37895;SDS011;23733;53.254;10.430;2023-04-15T08:53:36;56.60;;;27.57;;
37895;SDS011;23733;53.254;10.430;2023-04-15T08:56:08;65.53;;;30.50;;
37895;SDS011;23733;53.254;10.430;2023-04-15T09:01:30;58.23;;;27.63;;
37895;SDS011;23733;53.254;10.430;2023-04-15T09:04:02;64.53;;;28.53;;
37895;SDS011;23733;53.254;10.430;2023-04-15T09:06:41;55.97;;;26.27;;
37895;SDS011;23733;53.254;10.430;2023-04-15T09:09:07;53.13;;;26.60;;
37895;SDS011;23733;53.254;10.430;2023-04-15T09:11:34;58.97;;;26.43;;
37895;SDS011;23733;53.254;10.430;2023-04-15T09:14:05;54.57;;;26.37;;
37895;SDS011;23733;53.254;10.430;2023-04-15T09:26:35;53.10;;;24.80;;
37895;SDS011;23733;53.254;10.430;2023-04-15T09:29:31;57.63;;;28.10;;
37895;SDS011;23733;53.254;10.430;2023-04-15T09:32:46;52.07;;;26.03;;
37895;SDS011;23733;53.254;10.430;2023-04-15T09:36:17;50.30;;;23.93;;
37895;SDS011;23733;53.254;10.430;2023-04-15T09:42:27;52.73;;;25.40;;
37895;SDS011;23733;53.254;10.430;2023-04-15T09:44:53;49.73;;;24.90;;
37895;SDS011;23733;53.254;10.430;2023-04-15T09:47:28;44.00;;;22.13;;
37895;SDS011;23733;53.254;10.430;2023-04-15T09:50:04;48.97;;;23.50;;
37895;SDS011;23733;53.254;10.430;2023-04-15T09:52:42;50.87;;;25.03;;
37895;SDS011;23733;53.254;10.430;2023-04-15T09:55:09;46.97;;;23.90;;
37895;SDS011;23733;53.254;10.430;2023-04-15T09:57:59;45.03;;;22.90;;
37895;SDS011;23733;53.254;10.430;2023-04-15T10:00:25;43.97;;;23.37;;
37895;SDS011;23733;53.254;10.430;2023-04-15T10:07:03;42.30;;;23.83;;
37895;SDS011;23733;53.254;10.430;2023-04-15T10:09:43;44.93;;;22.40;;
37895;SDS011;23733;53.254;10.430;2023-04-15T10:12:35;42.17;;;21.80;;
37895;SDS011;23733;53.254;10.430;2023-04-15T10:15:16;44.07;;;22.53;;
37895;SDS011;23733;53.254;10.430;2023-04-15T10:17:55;36.63;;;20.97;;
37895;SDS011;23733;53.254;10.430;2023-04-15T10:23:32;45.87;;;23.03;;
37895;SDS011;23733;53.254;10.430;2023-04-15T10:26:19;36.23;;;20.70;;
37895;SDS011;23733;53.254;10.430;2023-04-15T10:29:01;36.13;;;19.43;;
37895;SDS011;23733;53.254;10.430;2023-04-15T10:34:49;33.07;;;19.57;;
37895;SDS011;23733;53.254;10.430;2023-04-15T10:37:39;35.17;;;19.90;;
37895;SDS011;23733;53.254;10.430;2023-04-15T10:43:24;33.80;;;20.30;;
37895;SDS011;23733;53.254;10.430;2023-04-15T10:45:52;32.67;;;19.87;;
37895;SDS011;23733;53.254;10.430;2023-04-15T10:48:18;32.20;;;18.80;;
37895;SDS011;23733;53.254;10.430;2023-04-15T10:50:57;33.60;;;18.57;;
37895;SDS011;23733;53.254;10.430;2023-04-15T10:53:29;28.00;;;18.33;;
37895;SDS011;23733;53.254;10.430;2023-04-15T10:55:59;29.20;;;18.47;;
37895;SDS011;23733;53.254;10.430;2023-04-15T10:58:25;27.63;;;18.03;;
37895;SDS011;23733;53.254;10.430;2023-04-15T11:01:06;31.17;;;17.87;;
37895;SDS011;23733;53.254;10.430;2023-04-15T11:03:36;30.07;;;17.33;;
37895;SDS011;23733;53.254;10.430;2023-04-15T11:06:03;29.10;;;18.00;;
37895;SDS011;23733;53.254;10.430;2023-04-15T11:11:15;29.10;;;17.50;;
37895;SDS011;23733;53.254;10.430;2023-04-15T11:13:48;28.37;;;17.87;;
37895;SDS011;23733;53.254;10.430;2023-04-15T11:16:15;23.47;;;15.50;;
37895;SDS011;23733;53.254;10.430;2023-04-15T11:18:42;25.93;;;17.13;;
37895;SDS011;23733;53.254;10.430;2023-04-15T11:21:18;27.93;;;16.90;;
37895;SDS011;23733;53.254;10.430;2023-04-15T11:23:44;21.50;;;15.63;;
37895;SDS011;23733;53.254;10.430;2023-04-15T11:26:11;25.17;;;16.77;;
37895;SDS011;23733;53.254;10.430;2023-04-15T11:28:39;28.10;;;17.53;;
37895;SDS011;23733;53.254;10.430;2023-04-15T11:31:06;25.90;;;17.07;;
37895;SDS011;23733;53.254;10.430;2023-04-15T11:33:35;28.40;;;15.93;;
37895;SDS011;23733;53.254;10.430;2023-04-15T11:36:01;22.23;;;15.83;;
37895;SDS011;23733;53.254;10.430;2023-04-15T11:38:28;22.67;;;15.13;;
37895;SDS011;23733;53.254;10.430;2023-04-15T11:40:55;23.03;;;15.57;;
37895;SDS011;23733;53.254;10.430;2023-04-15T11:43:22;23.23;;;15.83;;
37895;SDS011;23733;53.254;10.430;2023-04-15T11:45:59;24.73;;;16.90;;
37895;SDS011;23733;53.254;10.430;2023-04-15T11:48:30;22.47;;;15.80;;
37895;SDS011;23733;53.254;10.430;2023-04-15T11:51:01;25.53;;;16.13;;
37895;SDS011;23733;53.254;10.430;2023-04-15T11:53:38;26.17;;;16.73;;
37895;SDS011;23733;53.254;10.430;2023-04-15T11:56:05;24.20;;;16.43;;
37895;SDS011;23733;53.254;10.430;2023-04-15T11:58:33;22.70;;;15.93;;
37895;SDS011;23733;53.254;10.430;2023-04-15T12:01:01;22.50;;;15.10;;
37895;SDS011;23733;53.254;10.430;2023-04-15T12:03:28;22.13;;;15.03;;
37895;SDS011;23733;53.254;10.430;2023-04-15T12:11:14;23.43;;;15.80;;
37895;SDS011;23733;53.254;10.430;2023-04-15T12:13:47;22.70;;;15.50;;
37895;SDS011;23733;53.254;10.430;2023-04-15T12:16:17;21.27;;;15.30;;
37895;SDS011;23733;53.254;10.430;2023-04-15T12:18:44;22.70;;;15.70;;
37895;SDS011;23733;53.254;10.430;2023-04-15T12:21:11;24.53;;;15.90;;
37895;SDS011;23733;53.254;10.430;2023-04-15T12:23:49;24.70;;;15.07;;
37895;SDS011;23733;53.254;10.430;2023-04-15T12:26:16;22.53;;;14.77;;
37895;SDS011;23733;53.254;10.430;2023-04-15T12:28:42;22.63;;;14.97;;
37895;SDS011;23733;53.254;10.430;2023-04-15T12:31:09;20.73;;;15.50;;
37895;SDS011;23733;53.254;10.430;2023-04-15T12:33:35;19.97;;;14.03;;
37895;SDS011;23733;53.254;10.430;2023-04-15T12:36:02;21.43;;;14.97;;
37895;SDS011;23733;53.254;10.430;2023-04-15T12:38:30;19.57;;;14.37;;
37895;SDS011;23733;53.254;10.430;2023-04-15T12:40:57;21.93;;;14.60;;
37895;SDS011;23733;53.254;10.430;2023-04-15T12:43:32;20.87;;;14.50;;
37895;SDS011;23733;53.254;10.430;2023-04-15T12:45:59;18.47;;;13.97;;
37895;SDS011;23733;53.254;10.430;2023-04-15T12:48:25;18.43;;;12.63;;
37895;SDS011;23733;53.254;10.430;2023-04-15T12:50:52;20.43;;;13.83;;
37895;SDS011;23733;53.254;10.430;2023-04-15T12:53:19;16.77;;;12.53;;
37895;SDS011;23733;53.254;10.430;2023-04-15T12:55:45;17.33;;;13.57;;
37895;SDS011;23733;53.254;10.430;2023-04-15T12:58:11;19.67;;;13.73;;
37895;SDS011;23733;53.254;10.430;2023-04-15T13:00:37;19.97;;;14.33;;
37895;SDS011;23733;53.254;10.430;2023-04-15T13:03:03;17.37;;;12.10;;
37895;SDS011;23733;53.254;10.430;2023-04-15T13:05:29;17.47;;;12.03;;
37895;SDS011;23733;53.254;10.430;2023-04-15T13:07:56;16.10;;;11.90;;
37895;SDS011;23733;53.254;10.430;2023-04-15T13:10:22;17.90;;;12.00;;
37895;SDS011;23733;53.254;10.430;2023-04-15T13:12:48;15.50;;;11.13;;
37895;SDS011;23733;53.254;10.430;2023-04-15T13:15:21;15.63;;;11.30;;
37895;SDS011;23733;53.254;10.430;2023-04-15T13:17:48;17.43;;;11.73;;
37895;SDS011;23733;53.254;10.430;2023-04-15T13:20:14;14.83;;;10.67;;
37895;SDS011;23733;53.254;10.430;2023-04-15T13:22:40;15.60;;;10.33;;
37895;SDS011;23733;53.254;10.430;2023-04-15T13:25:07;14.27;;;10.10;;
37895;SDS011;23733;53.254;10.430;2023-04-15T13:27:33;13.23;;;9.47;;
37895;SDS011;23733;53.254;10.430;2023-04-15T13:29:59;15.73;;;10.37;;
37895;SDS011;23733;53.254;10.430;2023-04-15T13:32:25;15.70;;;10.00;;
37895;SDS011;23733;53.254;10.430;2023-04-15T13:34:51;15.27;;;11.33;;
37895;SDS011;23733;53.254;10.430;2023-04-15T13:37:19;17.23;;;11.43;;
37895;SDS011;23733;53.254;10.430;2023-04-15T13:39:45;15.07;;;11.07;;
37895;SDS011;23733;53.254;10.430;2023-04-15T13:42:11;16.97;;;11.27;;
37895;SDS011;23733;53.254;10.430;2023-04-15T13:44:37;18.67;;;11.77;;
37895;SDS011;23733;53.254;10.430;2023-04-15T13:47:03;17.97;;;11.90;;
37895;SDS011;23733;53.254;10.430;2023-04-15T13:49:29;17.37;;;11.20;;
37895;SDS011;23733;53.254;10.430;2023-04-15T13:51:55;17.10;;;11.17;;
37895;SDS011;23733;53.254;10.430;2023-04-15T13:54:24;16.50;;;10.73;;
37895;SDS011;23733;53.254;10.430;2023-04-15T13:56:51;15.50;;;11.40;;
37895;SDS011;23733;53.254;10.430;2023-04-15T13:59:17;15.63;;;11.27;;
37895;SDS011;23733;53.254;10.430;2023-04-15T14:01:43;14.70;;;10.83;;
37895;SDS011;23733;53.254;10.430;2023-04-15T14:04:09;12.77;;;10.20;;
37895;SDS011;23733;53.254;10.430;2023-04-15T14:06:35;15.33;;;10.67;;
37895;SDS011;23733;53.254;10.430;2023-04-15T14:09:01;12.53;;;9.70;;
37895;SDS011;23733;53.254;10.430;2023-04-15T14:11:29;13.50;;;10.07;;
37895;SDS011;23733;53.254;10.430;2023-04-15T14:13:55;11.27;;;8.87;;
37895;SDS011;23733;53.254;10.430;2023-04-15T14:16:21;14.60;;;9.33;;
37895;SDS011;23733;53.254;10.430;2023-04-15T14:18:48;11.17;;;8.77;;
37895;SDS011;23733;53.254;10.430;2023-04-15T14:21:14;12.20;;;9.57;;
37895;SDS011;23733;53.254;10.430;2023-04-15T14:23:40;12.87;;;9.07;;
37895;SDS011;23733;53.254;10.430;2023-04-15T14:26:06;12.33;;;8.97;;
37895;SDS011;23733;53.254;10.430;2023-04-15T14:28:32;13.37;;;8.40;;
37895;SDS011;23733;53.254;10.430;2023-04-15T14:30:58;12.23;;;8.80;;
37895;SDS011;23733;53.254;10.430;2023-04-15T14:33:24;13.07;;;9.80;;
37895;SDS011;23733;53.254;10.430;2023-04-15T14:35:50;10.57;;;8.73;;
37895;SDS011;23733;53.254;10.430;2023-04-15T14:38:16;14.33;;;8.67;;
37895;SDS011;23733;53.254;10.430;2023-04-15T14:40:42;12.50;;;8.77;;
37895;SDS011;23733;53.254;10.430;2023-04-15T14:43:09;12.60;;;8.77;;
37895;SDS011;23733;53.254;10.430;2023-04-15T14:45:36;12.90;;;8.97;;
37895;SDS011;23733;53.254;10.430;2023-04-15T14:48:03;11.43;;;8.83;;
37895;SDS011;23733;53.254;10.430;2023-04-15T14:50:30;12.17;;;8.73;;
37895;SDS011;23733;53.254;10.430;2023-04-15T14:52:57;14.07;;;8.40;;
37895;SDS011;23733;53.254;10.430;2023-04-15T14:55:23;13.13;;;8.10;;
37895;SDS011;23733;53.254;10.430;2023-04-15T14:57:49;11.67;;;7.83;;
37895;SDS011;23733;53.254;10.430;2023-04-15T15:00:15;10.90;;;8.53;;
37895;SDS011;23733;53.254;10.430;2023-04-15T15:02:41;12.97;;;8.33;;
37895;SDS011;23733;53.254;10.430;2023-04-15T15:05:08;13.80;;;8.27;;
37895;SDS011;23733;53.254;10.430;2023-04-15T15:07:35;12.57;;;8.37;;
37895;SDS011;23733;53.254;10.430;2023-04-15T15:10:02;13.20;;;9.13;;
37895;SDS011;23733;53.254;10.430;2023-04-15T15:12:28;12.13;;;8.30;;
37895;SDS011;23733;53.254;10.430;2023-04-15T15:14:54;9.23;;;7.37;;
37895;SDS011;23733;53.254;10.430;2023-04-15T15:17:20;11.63;;;8.13;;
37895;SDS011;23733;53.254;10.430;2023-04-15T15:19:46;11.97;;;8.50;;
37895;SDS011;23733;53.254;10.430;2023-04-15T15:22:13;11.67;;;7.90;;
37895;SDS011;23733;53.254;10.430;2023-04-15T15:24:39;11.57;;;8.77;;
37895;SDS011;23733;53.254;10.430;2023-04-15T15:27:05;13.90;;;8.90;;
37895;SDS011;23733;53.254;10.430;2023-04-15T15:29:31;11.97;;;8.60;;
37895;SDS011;23733;53.254;10.430;2023-04-15T15:31:57;12.27;;;9.00;;
37895;SDS011;23733;53.254;10.430;2023-04-15T15:34:24;15.93;;;9.63;;
37895;SDS011;23733;53.254;10.430;2023-04-15T15:36:50;13.73;;;9.80;;